Time;durP1;ratioP1;P1;durP2;ratioP2;P2;SDS_P1;SDS_P2;PMS_P1;PMS_P2;Temp;Humidity;BMP_temperature;BMP_pressure;BME280_temperature;BME280_humidity;BME280_pressure;Samples;Min_cycle;Max_cycle;Signal;HPM_P1;HPM_P2
2022/01/11 00:01:26;;;;;;;11.63;6.53;;;;;;;-2.63;78.90;100910.19;1404589;89;21349;-80
2022/01/11 00:03:53;;;;;;;13.03;6.70;;;;;;;-2.64;78.87;100920.16;1411419;89;21290;-80
2022/01/11 00:08:54;;;;;;;13.32;7.37;;;;;;;-2.62;78.50;100922.69;1489402;86;21526;-81
2022/01/11 00:11:20;;;;;;;12.68;6.97;;;;;;;-2.64;78.58;100933.58;1412324;87;21585;-82
2022/01/11 00:13:47;;;;;;;11.73;6.10;;;;;;;-2.65;78.44;100930.56;1434622;88;22294;-82
2022/01/11 00:16:14;;;;;;;12.63;7.00;;;;;;;-2.64;78.38;100925.34;1436326;88;21502;-83
2022/01/11 00:18:42;;;;;;;13.83;7.75;;;;;;;-2.65;78.51;100935.75;1445025;87;21412;-82
2022/01/11 00:21:11;;;;;;;14.18;6.70;;;;;;;-2.62;78.85;100935.64;1449900;87;22851;-82
2022/01/11 00:26:05;;;;;;;12.60;6.72;;;;;;;-2.64;78.29;100949.13;1463713;87;21322;-83
2022/01/11 00:28:33;;;;;;;10.90;6.85;;;;;;;-2.64;78.50;100946.53;1467745;86;22390;-84
2022/01/11 00:31:02;;;;;;;7.58;4.50;;;;;;;-2.67;78.07;100950.52;1431141;87;21993;-83
2022/01/11 00:33:36;;;;;;;13.90;6.80;;;;;;;-2.65;78.24;100953.89;1398627;89;21408;-83
2022/01/11 00:36:00;;;;;;;12.37;5.40;;;;;;;-2.66;77.64;100948.31;1419993;89;21472;-83
2022/01/11 00:38:33;;;;;;;10.78;6.33;;;;;;;-2.63;78.03;100963.77;1398536;92;21561;-83
2022/01/11 00:41:09;;;;;;;8.05;4.22;;;;;;;-2.66;77.94;100957.39;1419178;89;21389;-84
2022/01/11 00:43:39;;;;;;;7.72;3.85;;;;;;;-2.67;77.81;100962.19;1425034;89;22399;-84
2022/01/11 00:46:08;;;;;;;12.73;6.05;;;;;;;-2.69;77.89;100960.08;1387014;89;21387;-83
2022/01/11 00:48:39;;;;;;;8.10;4.67;;;;;;;-2.69;77.94;100962.67;1401993;90;21346;-83
2022/01/11 00:51:04;;;;;;;12.73;7.33;;;;;;;-2.68;77.92;100966.95;1432419;89;21349;-82
2022/01/11 00:53:31;;;;;;;8.80;4.75;;;;;;;-2.67;77.87;100960.44;1401347;90;22539;-83
2022/01/11 00:55:58;;;;;;;8.68;5.33;;;;;;;-2.72;77.97;100959.73;1378910;92;21536;-84
2022/01/11 00:58:26;;;;;;;10.10;4.95;;;;;;;-2.72;78.05;100968.34;1402429;89;21335;-83
2022/01/11 01:00:53;;;;;;;5.67;3.75;;;;;;;-2.77;77.89;100974.12;1397094;89;21349;-82
2022/01/11 01:03:20;;;;;;;9.70;5.75;;;;;;;-2.75;77.99;100973.63;1415542;89;21348;-83
2022/01/11 01:05:50;;;;;;;7.75;4.42;;;;;;;-2.70;78.19;100962.25;1417261;88;21354;-83
2022/01/11 01:08:18;;;;;;;12.98;5.95;;;;;;;-2.73;77.99;100970.55;1388552;89;21317;-82
2022/01/11 01:10:48;;;;;;;7.47;4.90;;;;;;;-2.72;77.89;100964.91;1421264;89;21289;-82
2022/01/11 01:13:23;;;;;;;9.18;4.78;;;;;;;-2.78;77.79;100978.91;1422044;89;21304;-83
2022/01/11 01:15:53;;;;;;;8.35;4.08;;;;;;;-2.78;78.10;100975.03;1409765;89;21505;-82
2022/01/11 01:18:25;;;;;;;9.90;5.62;;;;;;;-2.78;78.07;100976.32;1406451;89;21281;-82
2022/01/11 01:20:54;;;;;;;6.75;3.80;;;;;;;-2.75;78.14;100982.70;1429784;88;21317;-82
2022/01/11 01:23:22;;;;;;;11.50;5.47;;;;;;;-2.78;78.07;100986.69;1439165;89;21502;-83
2022/01/11 01:25:52;;;;;;;8.30;5.05;;;;;;;-2.74;77.92;100988.72;1464319;88;21422;-84
2022/01/11 01:28:19;;;;;;;9.45;5.15;;;;;;;-2.75;78.19;100990.47;1416502;89;21319;-83
2022/01/11 01:30:49;;;;;;;8.55;3.87;;;;;;;-2.75;77.98;100988.34;1457774;88;21423;-81
2022/01/11 01:33:16;;;;;;;12.88;6.20;;;;;;;-2.77;77.58;100971.98;1441083;87;21274;-81
2022/01/11 01:35:49;;;;;;;7.40;4.78;;;;;;;-2.78;77.64;100986.69;1477389;87;21318;-82
2022/01/11 01:38:12;;;;;;;12.93;5.65;;;;;;;-2.80;77.92;100983.28;1395833;88;21363;-82
2022/01/11 01:40:45;;;;;;;9.53;4.45;;;;;;;-2.78;77.96;100992.32;1435060;87;21392;-83
2022/01/11 01:43:11;;;;;;;5.62;3.72;;;;;;;-2.85;78.02;100985.20;1457799;86;21471;-81
2022/01/11 01:45:43;;;;;;;8.58;4.40;;;;;;;-2.85;77.99;100998.16;1424355;87;21275;-81
2022/01/11 01:48:12;;;;;;;7.55;4.65;;;;;;;-2.86;78.24;101001.62;1441736;88;21417;-81
2022/01/11 01:50:39;;;;;;;10.10;5.72;;;;;;;-2.86;78.31;100995.59;1426791;89;21474;-81
2022/01/11 01:53:11;;;;;;;6.15;3.98;;;;;;;-2.88;78.49;100989.16;1421839;88;21345;-81
2022/01/11 01:55:44;;;;;;;9.30;4.37;;;;;;;-2.87;78.49;100985.69;1481960;87;21348;-80
2022/01/11 01:58:13;;;;;;;9.53;4.42;;;;;;;-2.87;78.35;101003.82;1444078;87;21325;-81
2022/01/11 02:00:45;;;;;;;11.10;5.33;;;;;;;-2.84;78.42;100994.66;1446078;87;21370;-81
2022/01/11 02:03:15;;;;;;;7.03;3.70;;;;;;;-2.88;78.59;100995.63;1443665;87;22273;-82
2022/01/11 02:05:43;;;;;;;10.38;4.70;;;;;;;-2.86;78.58;101002.91;1453912;89;21339;-81
2022/01/11 02:08:13;;;;;;;11.22;5.20;;;;;;;-2.86;78.57;100997.73;1501458;87;21392;-81
2022/01/11 02:10:40;;;;;;;7.40;4.17;;;;;;;-2.83;78.63;100999.38;1481142;87;21363;-83
2022/01/11 02:13:11;;;;;;;9.93;5.45;;;;;;;-2.84;78.60;100999.84;1457939;88;21355;-82
2022/01/11 02:15:38;;;;;;;8.85;4.72;;;;;;;-2.81;78.66;101003.63;1445614;88;21400;-83
2022/01/11 02:18:20;;;;;;;8.80;5.50;;;;;;;-2.83;78.61;101004.11;1480589;87;22867;-83
2022/01/11 02:20:50;;;;;;;10.45;5.33;;;;;;;-2.81;78.53;101002.33;1445163;87;21563;-81
2022/01/11 02:23:21;;;;;;;8.18;4.62;;;;;;;-2.77;78.70;101001.78;1433056;88;22289;-81
2022/01/11 02:25:49;;;;;;;11.12;5.28;;;;;;;-2.79;78.86;101005.73;1423117;87;22332;-80
2022/01/11 02:28:22;;;;;;;8.35;4.72;;;;;;;-2.79;78.43;101004.44;1431613;87;21420;-80
2022/01/11 02:30:51;;;;;;;9.50;4.53;;;;;;;-2.76;78.44;101013.86;1424199;88;21342;-80
2022/01/11 02:33:35;;;;;;;12.88;6.47;;;;;;;-2.77;78.48;101009.55;1445423;88;22557;-80
2022/01/11 02:36:06;;;;;;;49.35;6.00;;;;;;;-2.78;78.37;101007.41;1423076;87;21488;-80
2022/01/11 02:38:34;;;;;;;10.85;4.25;;;;;;;-2.77;78.51;101002.62;1434834;87;21519;-80
2022/01/11 02:41:03;;;;;;;10.00;4.33;;;;;;;-2.77;78.36;101015.57;1437909;89;21303;-80
2022/01/11 02:43:30;;;;;;;12.13;5.95;;;;;;;-2.77;78.25;101017.32;1467064;88;23092;-80
2022/01/11 02:46:01;;;;;;;10.28;4.95;;;;;;;-2.77;78.47;101003.91;1434374;89;21429;-80
2022/01/11 02:48:30;;;;;;;6.72;4.08;;;;;;;-2.78;78.63;101002.23;1442495;89;21474;-80
2022/01/11 02:50:58;;;;;;;11.43;5.95;;;;;;;-2.80;78.55;101005.77;1432702;90;21546;-81
2022/01/11 02:53:25;;;;;;;14.33;4.83;;;;;;;-2.78;78.44;101011.30;1416942;89;22366;-82
2022/01/11 02:55:52;;;;;;;10.78;5.15;;;;;;;-2.78;78.30;101008.70;1426185;89;21599;-81
2022/01/11 02:58:19;;;;;;;8.73;5.08;;;;;;;-2.74;78.33;101017.22;1454401;87;21405;-82
2022/01/11 03:00:47;;;;;;;6.90;3.90;;;;;;;-2.75;78.21;100999.99;1447956;88;21399;-81
2022/01/11 03:03:22;;;;;;;11.22;5.33;;;;;;;-2.77;78.29;101022.05;1442679;88;22455;-82
2022/01/11 03:05:54;;;;;;;10.23;4.70;;;;;;;-2.72;78.45;101011.09;1406993;91;21465;-81
2022/01/11 03:08:24;;;;;;;7.33;3.85;;;;;;;-2.74;78.34;101024.55;1417933;91;21476;-81
2022/01/11 03:10:52;;;;;;;10.45;5.28;;;;;;;-2.70;78.51;101016.67;1398629;91;22639;-81
2022/01/11 03:13:20;;;;;;;7.08;4.60;;;;;;;-2.74;78.70;101019.36;1392946;91;22274;-81
2022/01/11 03:15:49;;;;;;;12.53;5.92;;;;;;;-2.73;78.32;101014.59;1404485;91;21434;-81
2022/01/11 03:18:17;;;;;;;9.55;5.55;;;;;;;-2.68;78.24;101023.50;1450694;89;21457;-81
2022/01/11 03:20:48;;;;;;;7.92;4.62;;;;;;;-2.68;78.09;101025.25;1441583;89;21430;-82
2022/01/11 03:23:16;;;;;;;7.85;4.33;;;;;;;-2.70;77.92;101027.03;1409541;91;21495;-82
2022/01/11 03:25:44;;;;;;;12.65;3.90;;;;;;;-2.69;77.72;101026.16;1408972;89;21562;-82
2022/01/11 03:28:14;;;;;;;7.97;4.33;;;;;;;-2.69;77.55;101030.05;1410545;89;21539;-82
2022/01/11 03:30:41;;;;;;;8.13;4.83;;;;;;;-2.73;77.32;101020.23;1425751;89;21623;-81
2022/01/11 03:33:08;;;;;;;8.43;4.53;;;;;;;-2.66;77.46;101026.06;1432771;89;21636;-82
2022/01/11 03:35:40;;;;;;;6.25;4.40;;;;;;;-2.69;77.65;101030.89;1418063;90;22418;-81
2022/01/11 03:38:11;;;;;;;4.92;2.87;;;;;;;-2.73;77.63;101031.44;1430003;89;21451;-82
2022/01/11 03:40:40;;;;;;;6.95;4.08;;;;;;;-2.72;77.54;101042.19;1404505;90;21548;-81
2022/01/11 03:43:11;;;;;;;6.47;3.12;;;;;;;-2.72;77.90;101027.94;1415893;91;22660;-81
2022/01/11 03:45:38;;;;;;;6.78;4.25;;;;;;;-2.76;77.48;101026.36;1416535;91;21438;-82
2022/01/11 03:48:07;;;;;;;8.73;5.47;;;;;;;-2.73;77.56;101039.21;1407961;91;21481;-82
2022/01/11 03:50:35;;;;;;;7.35;3.65;;;;;;;-2.72;77.69;101036.17;1396724;92;22450;-82
2022/01/11 03:53:16;;;;;;;8.85;3.33;;;;;;;-2.72;77.61;101038.30;1427309;89;21652;-83
2022/01/11 03:55:58;;;;;;;6.95;3.90;;;;;;;-2.72;77.33;101043.48;1427875;90;22406;-82
2022/01/11 03:58:16;;;;;;;10.00;5.15;;;;;;;-2.69;77.22;101049.48;1429700;88;21481;-82
2022/01/11 04:00:44;;;;;;;9.98;4.87;;;;;;;-2.69;77.22;101048.19;1424216;89;21493;-81
2022/01/11 04:03:14;;;;;;;8.10;4.22;;;;;;;-2.69;76.94;101052.07;1419549;90;21467;-82
2022/01/11 04:05:43;;;;;;;8.03;4.37;;;;;;;-2.72;76.54;101051.72;1424486;89;21474;-82
2022/01/11 04:08:11;;;;;;;7.35;3.95;;;;;;;-2.68;76.89;101047.27;1403578;91;21510;-82
2022/01/11 04:10:39;;;;;;;8.10;4.83;;;;;;;-2.70;76.41;101059.42;1448929;90;22645;-81
2022/01/11 04:13:07;;;;;;;11.20;4.28;;;;;;;-2.63;76.80;101060.94;1431524;88;21421;-81
2022/01/11 04:15:34;;;;;;;7.75;3.95;;;;;;;-2.65;76.68;101069.20;1410729;91;21488;-81
2022/01/11 04:18:01;;;;;;;6.20;3.02;;;;;;;-2.66;76.36;101077.89;1427327;91;22520;-81
2022/01/11 04:20:29;;;;;;;6.87;3.98;;;;;;;-2.64;76.20;101070.92;1411154;91;21421;-81
2022/01/11 04:22:56;;;;;;;7.87;4.12;;;;;;;-2.62;76.36;101077.76;1423242;91;21481;-81
2022/01/11 04:25:23;;;;;;;7.08;3.80;;;;;;;-2.60;76.15;101075.94;1406819;91;23584;-81
2022/01/11 04:27:50;;;;;;;7.78;3.08;;;;;;;-2.66;75.94;101081.77;1435988;88;22516;-82
2022/01/11 04:30:17;;;;;;;7.30;4.30;;;;;;;-2.64;75.79;101080.83;1418823;88;21466;-81
2022/01/11 04:32:45;;;;;;;10.50;4.65;;;;;;;-2.65;75.93;101090.78;1415223;91;21481;-81
2022/01/11 04:35:15;;;;;;;7.80;3.70;;;;;;;-2.65;75.51;101089.94;1407556;90;21636;-81
2022/01/11 04:37:44;;;;;;;5.53;3.77;;;;;;;-2.66;75.42;101083.91;1414303;92;22639;-81
2022/01/11 04:40:13;;;;;;;9.10;3.77;;;;;;;-2.61;75.78;101082.03;1406366;91;23344;-82
2022/01/11 04:42:41;;;;;;;9.00;3.55;;;;;;;-2.66;75.74;101081.77;1412821;91;21681;-81
2022/01/11 04:45:14;;;;;;;12.35;4.17;;;;;;;-2.70;75.87;101084.04;1421322;90;21541;-82
2022/01/11 04:47:44;;;;;;;9.53;4.72;;;;;;;-2.72;75.64;101083.66;1392668;92;21450;-81
2022/01/11 04:50:11;;;;;;;8.45;4.12;;;;;;;-2.72;75.53;101094.02;1388487;92;22512;-81
2022/01/11 04:52:39;;;;;;;9.75;4.33;;;;;;;-2.71;75.50;101098.75;1382549;93;21716;-80
2022/01/11 04:55:08;;;;;;;7.15;3.98;;;;;;;-2.70;75.50;101097.00;1418679;90;23434;-80
2022/01/11 04:57:35;;;;;;;7.03;3.77;;;;;;;-2.69;75.48;101115.56;1432302;88;21466;-81
2022/01/11 05:00:04;;;;;;;7.08;3.67;;;;;;;-2.70;75.50;101097.87;1434973;89;21598;-81
2022/01/11 05:02:31;;;;;;;9.98;4.08;;;;;;;-2.72;75.40;101101.79;1408259;90;23896;-81
2022/01/11 05:04:59;;;;;;;4.60;3.02;;;;;;;-2.72;75.23;101108.27;1415914;90;21639;-81
2022/01/11 05:07:26;;;;;;;8.25;4.47;;;;;;;-2.72;75.43;101103.08;1413583;90;21672;-81
2022/01/11 05:09:53;;;;;;;6.15;3.65;;;;;;;-2.69;75.39;101114.26;1393253;92;21472;-80
2022/01/11 05:12:21;;;;;;;9.78;3.83;;;;;;;-2.70;75.35;101104.77;1400669;91;21860;-80
2022/01/11 05:14:49;;;;;;;7.70;3.42;;;;;;;-2.70;75.30;101111.25;1424807;90;21548;-80
2022/01/11 05:17:16;;;;;;;7.85;4.40;;;;;;;-2.70;75.37;101115.13;1391962;93;21567;-79
2022/01/11 05:19:43;;;;;;;9.35;3.42;;;;;;;-2.69;75.56;101114.26;1418400;90;21510;-80
2022/01/11 05:22:11;;;;;;;16.60;3.92;;;;;;;-2.71;74.96;101113.00;1421803;90;21434;-80
2022/01/11 05:24:38;;;;;;;8.58;5.25;;;;;;;-2.69;75.14;101119.45;1409254;91;21474;-80
2022/01/11 05:27:06;;;;;;;6.78;3.35;;;;;;;-2.66;75.04;101123.23;1417740;91;21458;-80
2022/01/11 05:29:33;;;;;;;5.47;2.60;;;;;;;-2.67;74.98;101118.50;1416173;90;22627;-80
2022/01/11 05:32:02;;;;;;;10.13;4.65;;;;;;;-2.69;74.89;101124.17;1419617;89;21505;-79
2022/01/11 05:34:29;;;;;;;6.05;3.45;;;;;;;-2.69;74.63;101130.66;1414592;91;21605;-81
2022/01/11 05:36:57;;;;;;;6.20;4.03;;;;;;;-2.66;74.90;101136.19;1404839;91;21557;-81
2022/01/11 05:39:24;;;;;;;8.00;3.75;;;;;;;-2.66;74.90;101132.30;1425292;90;21445;-81
2022/01/11 05:41:52;;;;;;;7.10;3.55;;;;;;;-2.65;74.65;101139.17;1426905;90;21600;-82
2022/01/11 05:44:20;;;;;;;6.85;3.50;;;;;;;-2.67;74.48;101143.58;1414693;91;21479;-81
2022/01/11 05:46:51;;;;;;;6.50;3.45;;;;;;;-2.66;74.61;101145.27;1403395;90;21365;-81
2022/01/11 05:49:18;;;;;;;;;;;;;;;-2.65;74.52;101145.20;1417268;91;21483;-80
2022/01/11 05:51:45;;;;;;;5.95;4.30;;;;;;;-2.68;74.47;101151.77;1441344;90;20293;-81
2022/01/11 05:54:13;;;;;;;5.35;2.80;;;;;;;-2.65;74.53;101165.93;1427874;90;22368;-81
2022/01/11 05:56:40;;;;;;;6.45;3.35;;;;;;;-2.71;74.23;101160.94;1427139;90;21480;-82
2022/01/11 05:59:07;;;;;;;4.92;3.15;;;;;;;-2.65;74.54;101170.27;1418713;91;22624;-82
2022/01/11 06:01:35;;;;;;;5.75;3.37;;;;;;;-2.66;74.50;101163.41;1424871;91;21555;-81
2022/01/11 06:04:03;;;;;;;14.38;4.62;;;;;;;-2.67;74.29;101164.31;1422064;90;21430;-81
2022/01/11 06:06:30;;;;;;;8.68;3.87;;;;;;;-2.63;74.35;101172.38;1430814;90;21504;-81
2022/01/11 06:08:59;;;;;;;4.97;3.42;;;;;;;-2.67;74.48;101174.22;1424193;90;21429;-83
2022/01/11 06:11:27;;;;;;;5.33;3.10;;;;;;;-2.69;74.59;101172.11;1414030;90;22465;-83
2022/01/11 06:13:54;;;;;;;5.87;3.22;;;;;;;-2.73;74.39;101175.25;1414885;90;21435;-82
2022/01/11 06:16:21;;;;;;;8.90;4.17;;;;;;;-2.72;74.55;101183.41;1421149;91;21569;-82
2022/01/11 06:18:50;;;;;;;8.00;3.50;;;;;;;-2.72;74.66;101186.00;1404925;91;21525;-83
2022/01/11 06:21:18;;;;;;;6.67;3.98;;;;;;;-2.68;74.56;101194.98;1405643;91;21534;-82
2022/01/11 06:23:47;;;;;;;6.55;3.17;;;;;;;-2.73;74.30;101196.43;1414879;91;21548;-82
2022/01/11 06:26:15;;;;;;;9.63;4.72;;;;;;;-2.73;74.44;101195.14;1409610;90;21431;-82
2022/01/11 06:28:46;;;;;;;16.82;6.90;;;;;;;-2.73;74.27;101218.00;1405075;91;21748;-82
2022/01/11 06:31:14;;;;;;;102.65;39.27;;;;;;;-2.73;74.73;101221.89;1387968;92;21452;-81
2022/01/11 06:33:41;;;;;;;74.55;27.00;;;;;;;-2.73;74.77;101212.82;1412619;91;21460;-80
2022/01/11 06:36:10;;;;;;;25.52;9.95;;;;;;;-2.74;74.55;101222.77;1401199;91;21569;-81
2022/01/11 06:38:42;;;;;;;16.42;6.12;;;;;;;-2.74;74.56;101220.17;1416880;91;21494;-81
2022/01/11 06:41:10;;;;;;;7.15;4.10;;;;;;;-2.75;74.67;101230.59;1421756;90;21443;-80
2022/01/11 06:43:39;;;;;;;11.22;5.58;;;;;;;-2.81;74.72;101223.84;1400681;91;21538;-80
2022/01/11 06:46:06;;;;;;;7.60;4.40;;;;;;;-2.76;74.83;101227.61;1417120;91;21630;-81
2022/01/11 06:48:34;;;;;;;11.43;5.78;;;;;;;-2.75;74.47;101231.89;1406071;91;21442;-81
2022/01/11 06:51:02;;;;;;;7.28;4.53;;;;;;;-2.75;74.60;101234.03;1409576;90;21539;-82
2022/01/11 06:53:31;;;;;;;10.18;3.95;;;;;;;-2.74;74.62;101240.91;1416094;91;21406;-81
2022/01/11 06:55:59;;;;;;;12.85;6.80;;;;;;;-2.77;74.55;101242.28;1415781;90;21546;-80
2022/01/11 06:58:26;;;;;;;9.03;5.45;;;;;;;-2.72;74.60;101237.83;1422364;91;21406;-80
2022/01/11 07:00:53;;;;;;;16.75;6.97;;;;;;;-2.73;74.62;101247.80;1421148;90;22308;-80
2022/01/11 07:03:21;;;;;;;11.10;5.40;;;;;;;-2.77;74.74;101240.98;1413535;90;21516;-80
2022/01/11 07:05:48;;;;;;;10.75;5.35;;;;;;;-2.74;74.71;101249.12;1405493;90;21463;-79
2022/01/11 07:08:15;;;;;;;17.80;7.67;;;;;;;-2.78;74.51;101263.07;1420665;90;22380;-80
2022/01/11 07:10:42;;;;;;;10.85;4.80;;;;;;;-2.73;74.57;101258.17;1419496;90;21397;-79
2022/01/11 07:13:09;;;;;;;7.10;3.60;;;;;;;-2.73;74.39;101259.46;1413832;91;22881;-78
2022/01/11 07:15:37;;;;;;;11.10;5.15;;;;;;;-2.40;79.42;101256.80;1414517;90;21327;-78
2022/01/11 07:18:09;;;;;;;11.43;5.95;;;;;;;-2.32;75.14;101257.42;1413287;90;21384;-78
2022/01/11 07:20:33;;;;;;;7.40;3.47;;;;;;;-2.32;74.28;101260.02;1424278;90;21567;-78
2022/01/11 07:23:01;;;;;;;7.50;4.90;;;;;;;-2.16;74.59;101255.66;1403563;90;21575;-81
2022/01/11 07:25:30;;;;;;;13.53;6.37;;;;;;;-2.37;73.02;101264.48;1402212;91;21473;-81
2022/01/11 07:27:57;;;;;;;8.43;4.65;;;;;;;-2.48;73.53;101269.12;1400809;90;21969;-82
2022/01/11 07:30:25;;;;;;;9.90;4.15;;;;;;;-2.56;73.50;101276.27;1415345;90;21474;-80
2022/01/11 07:32:52;;;;;;;5.30;2.83;;;;;;;-2.57;73.73;101281.05;1407199;90;21622;-82
2022/01/11 07:35:19;;;;;;;9.70;4.53;;;;;;;-2.61;73.60;101282.05;1407680;91;21468;-82
2022/01/11 07:37:46;;;;;;;8.00;4.60;;;;;;;-2.60;73.97;101282.44;1415723;91;21475;-81
2022/01/11 07:40:14;;;;;;;10.18;4.90;;;;;;;-2.61;73.62;101283.34;1419380;89;21647;-82
2022/01/11 07:42:41;;;;;;;7.92;3.92;;;;;;;-2.61;73.89;101288.52;1421021;90;21439;-82
2022/01/11 07:45:09;;;;;;;22.13;9.35;;;;;;;-2.62;73.60;101294.16;1416541;90;21473;-82
2022/01/11 07:47:36;;;;;;;8.05;4.35;;;;;;;-2.58;73.67;101290.58;1413299;91;21517;-82
2022/01/11 07:50:06;;;;;;;10.00;4.75;;;;;;;-2.58;72.90;101294.47;1420569;89;21462;-82
2022/01/11 07:52:34;;;;;;;11.20;5.45;;;;;;;-2.53;72.83;101300.83;1409763;90;21577;-82
2022/01/11 07:55:02;;;;;;;10.03;5.60;;;;;;;-2.52;72.80;101303.81;1412234;90;21492;-81
2022/01/11 07:57:29;;;;;;;15.28;7.33;;;;;;;-2.50;72.39;101307.22;1415388;90;21479;-80
2022/01/11 07:59:56;;;;;;;7.83;4.40;;;;;;;-2.46;72.80;101304.94;1417333;90;21479;-81
2022/01/11 08:02:23;;;;;;;10.40;5.15;;;;;;;-2.46;72.35;101303.64;1405797;90;23469;-80
2022/01/11 08:04:57;;;;;;;7.20;4.05;;;;;;;-2.45;72.62;101302.73;1453889;90;21348;-81
2022/01/11 08:07:25;;;;;;;9.08;4.05;;;;;;;-2.44;71.95;101313.52;1418318;90;22997;-81
2022/01/11 08:09:52;;;;;;;8.28;3.55;;;;;;;-2.39;71.58;101309.48;1394590;91;21469;-80
2022/01/11 08:12:19;;;;;;;15.18;6.35;;;;;;;-2.43;71.57;101311.33;1403092;91;21319;-80
2022/01/11 08:14:48;;;;;;;12.58;5.35;;;;;;;-2.36;71.75;101314.16;1400476;90;22664;-81
2022/01/11 08:17:17;;;;;;;6.78;4.25;;;;;;;-2.37;71.44;101312.45;1399370;91;21550;-81
2022/01/11 08:19:46;;;;;;;5.28;2.80;;;;;;;-2.36;70.99;101308.98;1398768;91;21422;-81
2022/01/11 08:22:13;;;;;;;11.15;4.42;;;;;;;-2.30;70.87;101317.88;1428296;90;21438;-80
2022/01/11 08:24:41;;;;;;;7.03;3.50;;;;;;;-2.25;71.23;101320.77;1421852;91;22354;-81
2022/01/11 08:27:09;;;;;;;4.95;2.80;;;;;;;-2.33;70.45;101315.37;1432897;90;21627;-81
2022/01/11 08:29:37;;;;;;;7.25;3.55;;;;;;;-2.32;70.52;101331.77;1434529;90;21376;-80
2022/01/11 08:32:05;;;;;;;5.10;2.72;;;;;;;-2.24;70.65;101327.64;1434749;90;21511;-81
2022/01/11 08:34:32;;;;;;;6.53;3.50;;;;;;;-2.25;70.38;101324.20;1411636;91;21615;-79
2022/01/11 08:37:00;;;;;;;6.75;3.80;;;;;;;-2.24;70.35;101331.53;1418387;90;21381;-80
2022/01/11 08:39:30;;;;;;;5.37;3.30;;;;;;;-2.18;70.42;101341.77;1409424;91;22349;-79
2022/01/11 08:41:57;;;;;;;6.58;3.52;;;;;;;-2.17;69.97;101339.55;1380707;92;21930;-80
2022/01/11 08:44:24;;;;;;;6.45;3.92;;;;;;;-2.15;70.00;101339.92;1407138;91;21467;-80
2022/01/11 08:46:51;;;;;;;5.03;2.85;;;;;;;-2.10;70.01;101350.14;1395741;91;22075;-80
2022/01/11 08:49:22;;;;;;;7.42;3.35;;;;;;;-2.17;69.61;101353.83;1429412;90;23540;-79
2022/01/11 08:51:50;;;;;;;4.53;2.77;;;;;;;-2.14;69.97;101356.33;1436214;89;21459;-80
2022/01/11 08:54:20;;;;;;;4.80;2.83;;;;;;;-2.08;69.35;101356.98;1431156;90;21481;-79
2022/01/11 08:56:46;;;;;;;8.18;3.62;;;;;;;-2.03;69.60;101363.36;1431677;88;22830;-80
2022/01/11 08:59:14;;;;;;;7.00;2.90;;;;;;;-1.99;70.06;101368.84;1440525;88;21459;-80
2022/01/11 09:01:41;;;;;;;4.33;2.52;;;;;;;-1.98;69.62;101361.48;1442936;88;21474;-80
2022/01/11 09:04:08;;;;;;;6.25;3.12;;;;;;;-1.98;69.39;101365.37;1444278;88;22441;-81
2022/01/11 09:06:36;;;;;;;9.50;3.45;;;;;;;-1.94;69.49;101355.30;1436033;88;22071;-80
2022/01/11 09:09:04;;;;;;;8.65;4.50;;;;;;;-1.97;69.03;101355.39;1439718;88;21709;-81
2022/01/11 09:11:31;;;;;;;8.38;4.60;;;;;;;-1.85;69.25;101361.96;1429063;88;22536;-80
2022/01/11 09:13:58;;;;;;;5.30;2.77;;;;;;;-1.90;68.90;101358.64;1443608;88;21481;-80
2022/01/11 09:16:25;;;;;;;5.22;3.70;;;;;;;-1.88;68.71;101356.86;1444404;88;21466;-80
2022/01/11 09:18:53;;;;;;;6.40;3.15;;;;;;;-1.85;68.54;101343.34;1446715;88;21523;-80
2022/01/11 09:21:22;;;;;;;7.42;2.52;;;;;;;-1.74;68.90;101340.88;1451852;88;22291;-81
2022/01/11 09:23:51;;;;;;;5.95;3.37;;;;;;;-1.78;68.12;101341.86;1427036;88;22352;-80
2022/01/11 09:26:19;;;;;;;19.20;8.70;;;;;;;-1.70;68.48;101344.62;1442050;88;21467;-80
2022/01/11 09:28:46;;;;;;;8.48;3.50;;;;;;;-1.64;68.75;101349.65;1436224;88;21510;-81
2022/01/11 09:31:13;;;;;;;4.25;2.20;;;;;;;-1.56;68.26;101345.50;1457322;88;22740;-80
2022/01/11 09:33:40;;;;;;;8.75;4.22;;;;;;;-1.57;67.46;101338.62;1449417;88;21429;-81
2022/01/11 09:36:08;;;;;;;7.03;4.20;;;;;;;-1.53;67.91;101341.95;1449521;88;21333;-80
2022/01/11 09:38:35;;;;;;;6.33;3.75;;;;;;;-1.46;67.79;101347.38;1427583;88;22353;-80
2022/01/11 09:41:03;;;;;;;10.13;4.65;;;;;;;-1.46;67.32;101340.43;1449465;88;21400;-81
2022/01/11 09:43:30;;;;;;;8.08;3.58;;;;;;;-1.38;67.56;101342.80;1450063;88;21847;-80
2022/01/11 09:45:58;;;;;;;4.42;2.30;;;;;;;-1.31;67.30;101338.24;1457039;88;22463;-80
2022/01/11 09:48:31;;;;;;;3.37;2.05;;;;;;;-1.37;66.89;101348.38;1451774;88;21701;-80
2022/01/11 09:51:00;;;;;;;5.47;3.10;;;;;;;-1.35;66.66;101349.19;1428684;89;21394;-80
2022/01/11 09:53:28;;;;;;;4.25;2.37;;;;;;;-1.31;66.80;101355.97;1422101;90;21363;-80
2022/01/11 09:55:56;;;;;;;6.62;3.40;;;;;;;-1.27;66.72;101345.02;1416005;91;21452;-80
2022/01/11 09:58:23;;;;;;;5.65;2.83;;;;;;;-1.23;66.65;101349.23;1428820;90;21578;-80
2022/01/11 10:00:53;;;;;;;3.80;2.47;;;;;;;-1.21;66.44;101344.81;1411662;90;21582;-80
2022/01/11 10:03:20;;;;;;;5.58;3.05;;;;;;;-1.18;66.14;101346.02;1421267;91;22483;-80
2022/01/11 10:05:47;;;;;;;6.50;3.22;;;;;;;-1.17;65.97;101346.44;1432360;91;21436;-81
2022/01/11 10:08:27;;;;;;;4.83;3.08;;;;;;;-1.17;66.04;101345.98;1429288;91;21488;-80
2022/01/11 10:10:58;;;;;;;6.50;3.57;;;;;;;-1.17;66.25;101351.63;1424585;90;21387;-80
2022/01/11 10:13:39;;;;;;;5.75;3.35;;;;;;;-1.10;65.99;101347.92;1430498;90;22075;-80
2022/01/11 10:16:24;;;;;;;;;;;;;;;-1.14;66.44;101347.17;1423841;90;22024;-81
2022/01/11 10:18:55;;;;;;;4.58;2.67;;;;;;;-1.14;66.21;101340.68;1436136;90;20251;-80
2022/01/11 10:21:42;;;;;;;5.15;2.77;;;;;;;-1.15;66.08;101343.34;1409505;91;21509;-80
2022/01/11 10:24:38;;;;;;;4.90;3.15;;;;;;;-1.05;65.95;101350.38;1431728;90;22420;-80
2022/01/11 10:27:27;;;;;;;5.12;2.75;;;;;;;-0.99;65.84;101347.11;1396052;91;21605;-79
2022/01/11 10:30:01;;;;;;;5.53;3.00;;;;;;;-0.98;65.30;101347.53;1456390;88;23855;-80
2022/01/11 10:32:34;;;;;;;15.45;9.80;;;;;;;-0.91;65.47;101345.56;1451858;88;21614;-80
2022/01/11 10:35:18;;;;;;;7.47;3.52;;;;;;;-0.81;65.42;101348.69;1447000;88;21370;-80
2022/01/11 10:37:49;;;;;;;4.60;2.80;;;;;;;-0.81;64.88;101348.69;1424882;91;22347;-80
2022/01/11 10:40:21;;;;;;;6.30;3.47;;;;;;;-0.72;65.48;101348.37;1427372;90;21496;-80
2022/01/11 10:42:57;;;;;;;5.30;3.03;;;;;;;-0.63;65.00;101345.47;1442916;88;21758;-79
2022/01/11 10:45:38;;;;;;;9.37;3.60;;;;;;;-0.62;64.68;101359.32;1448870;88;23384;-80
2022/01/11 10:48:15;;;;;;;9.65;5.05;;;;;;;-0.57;64.85;101350.45;1441685;88;22922;-80
2022/01/11 10:50:53;;;;;;;8.07;4.30;;;;;;;-0.46;64.97;101345.72;1441981;88;22508;-80
2022/01/11 10:53:25;;;;;;;6.80;3.10;;;;;;;-0.44;64.70;101338.31;1458029;88;22561;-80
2022/01/11 10:55:55;;;;;;;4.87;3.03;;;;;;;-0.40;64.00;101350.29;1445369;88;21861;-80
2022/01/11 10:58:24;;;;;;;6.08;3.45;;;;;;;-0.35;63.97;101341.87;1448941;88;21795;-81
2022/01/11 11:00:53;;;;;;;5.30;2.90;;;;;;;-0.25;63.66;101341.49;1451091;88;21445;-81
2022/01/11 11:03:28;;;;;;;6.83;2.90;;;;;;;-0.26;63.10;101342.83;1436751;90;21694;-81
2022/01/11 11:06:10;;;;;;;11.93;5.90;;;;;;;-0.23;63.11;101336.25;1428784;89;22233;-80
2022/01/11 11:08:44;;;;;;;3.57;2.10;;;;;;;-0.05;63.28;101348.56;1435333;90;21613;-80
2022/01/11 11:11:18;;;;;;;5.73;2.93;;;;;;;-0.10;62.50;101347.03;1433114;91;22851;-81
2022/01/11 11:13:48;;;;;;;6.83;3.23;;;;;;;0.02;62.73;101353.08;1403941;91;25037;-82
2022/01/11 11:16:30;;;;;;;4.42;2.85;;;;;;;0.05;62.71;101354.72;1433080;90;21754;-82
2022/01/11 11:19:04;;;;;;;5.07;2.53;;;;;;;-0.05;61.90;101349.86;1417640;91;22451;-82
2022/01/11 11:21:37;;;;;;;5.87;3.67;;;;;;;-0.03;61.97;101356.30;1432905;91;21808;-82
2022/01/11 11:24:14;;;;;;;4.47;2.70;;;;;;;0.02;61.53;101355.68;1439961;90;21482;-81
2022/01/11 11:26:47;;;;;;;11.37;4.23;;;;;;;0.08;61.90;101357.20;1429102;90;22723;-82
2022/01/11 11:29:16;;;;;;;4.47;2.80;;;;;;;0.15;61.97;101338.70;1397796;91;21663;-82
2022/01/11 11:31:43;;;;;;;8.40;3.33;;;;;;;0.18;61.75;101348.16;1396948;91;22007;-82
2022/01/11 11:34:12;;;;;;;9.80;3.80;;;;;;;0.12;61.35;101366.16;1422201;90;21510;-82
2022/01/11 11:36:42;;;;;;;5.47;3.43;;;;;;;0.17;61.60;101354.25;1426510;91;21765;-82
2022/01/11 11:39:20;;;;;;;10.57;4.90;;;;;;;0.21;62.08;101366.27;1422798;90;21846;-84